Time;durP1;ratioP1;P1;durP2;ratioP2;P2;SDS_P1;SDS_P2;PMS_P1;PMS_P2;Temp;Humidity;BMP_temperature;BMP_pressure;BME280_temperature;BME280_humidity;BME280_pressure;Samples;Min_cycle;Max_cycle;Signal;HPM_P1;HPM_P2
2022/07/17 00:02:23;;;;;;;;;4.25;4.25;;;;;24.74;34.09;102001.09;4868028;29;45451;-65
2022/07/17 00:04:49;;;;;;;;;4.75;4.00;;;;;24.76;34.30;101998.25;4867170;29;52178;-65
2022/07/17 00:07:14;;;;;;;;;2.00;2.00;;;;;24.75;34.18;102007.41;4864727;29;45711;-65
2022/07/17 00:09:39;;;;;;;;;2.50;2.50;;;;;24.71;34.20;102012.22;4877569;29;45641;-65
2022/07/17 00:12:05;;;;;;;;;5.25;4.00;;;;;24.69;34.21;102010.56;4877121;29;45462;-65
2022/07/17 00:14:30;;;;;;;;;4.00;4.00;;;;;24.67;34.33;102002.50;4877079;29;45823;-65
2022/07/17 00:16:57;;;;;;;;;3.50;3.50;;;;;24.64;34.30;102007.31;4864678;29;45890;-64
2022/07/17 00:19:23;;;;;;;;;5.75;2.75;;;;;24.59;33.99;102004.91;4868650;29;45381;-65
2022/07/17 00:21:49;;;;;;;;;5.00;3.00;;;;;24.53;34.36;102003.47;4875017;29;46119;-65
2022/07/17 00:24:19;;;;;;;;;3.00;3.00;;;;;24.47;34.22;101995.72;4878972;29;45362;-65
2022/07/17 00:26:48;;;;;;;;;2.00;2.00;;;;;24.53;34.51;102006.19;4866678;29;45335;-65
2022/07/17 00:29:13;;;;;;;;;5.50;4.50;;;;;24.47;34.17;102003.03;4866880;29;45176;-65
2022/07/17 00:31:39;;;;;;;;;3.00;3.00;;;;;24.46;34.66;101998.53;4880724;29;47931;-65
2022/07/17 00:34:04;;;;;;;;;4.25;4.25;;;;;24.48;34.38;102005.66;4866660;29;45215;-65
2022/07/17 00:36:30;;;;;;;;;3.25;3.25;;;;;24.49;34.64;102011.97;4870391;29;45317;-68
2022/07/17 00:38:55;;;;;;;;;3.25;2.00;;;;;24.37;34.61;102002.81;4877783;29;45135;-66
2022/07/17 00:41:20;;;;;;;;;4.25;1.50;;;;;24.34;34.70;101998.47;4887649;29;45497;-66
2022/07/17 00:43:46;;;;;;;;;4.50;3.25;;;;;24.35;34.98;101993.88;4885760;29;45201;-66
2022/07/17 00:46:11;;;;;;;;;1.25;1.25;;;;;24.33;34.77;101991.25;4883475;29;45431;-64
2022/07/17 00:48:36;;;;;;;;;3.00;3.00;;;;;24.25;34.59;101988.19;4866343;29;45401;-64
2022/07/17 00:51:02;;;;;;;;;3.75;3.75;;;;;24.18;34.90;101987.75;4881880;29;45492;-64
2022/07/17 00:53:31;;;;;;;;;3.50;3.00;;;;;24.17;35.01;102002.38;4875645;29;45917;-64
2022/07/17 00:55:58;;;;;;;;;4.00;3.00;;;;;24.17;34.67;102004.22;4880545;29;45286;-64
2022/07/17 00:58:25;;;;;;;;;2.00;2.00;;;;;24.18;35.26;101997.78;4866193;29;45225;-64
2022/07/17 01:00:53;;;;;;;;;4.00;3.00;;;;;24.15;34.56;101987.94;4865900;29;45245;-64
2022/07/17 01:03:21;;;;;;;;;3.00;3.00;;;;;24.16;34.78;101988.84;4866029;29;45531;-64
2022/07/17 01:05:47;;;;;;;;;3.00;3.00;;;;;24.21;34.92;102000.31;4827772;29;1138721;-64
2022/07/17 01:08:13;;;;;;;;;2.75;2.75;;;;;24.21;35.18;102012.09;4881541;29;45147;-64
2022/07/17 01:10:38;;;;;;;;;3.25;3.00;;;;;24.19;34.99;102007.69;4890064;29;45277;-64
2022/07/17 01:13:05;;;;;;;;;3.25;3.25;;;;;24.20;34.91;102012.19;4885598;29;45260;-64
2022/07/17 01:15:32;;;;;;;;;4.75;3.50;;;;;24.15;35.02;102006.19;4871516;29;45288;-64
2022/07/17 01:17:58;;;;;;;;;2.75;2.75;;;;;24.09;35.13;102006.59;4867025;29;45455;-64
2022/07/17 01:20:23;;;;;;;;;3.50;3.00;;;;;24.07;35.14;102000.38;4878229;29;45430;-64
2022/07/17 01:22:50;;;;;;;;;3.00;3.00;;;;;24.01;35.19;101998.97;4876846;29;45326;-64
2022/07/17 01:25:20;;;;;;;;;3.00;3.00;;;;;23.99;35.21;102003.63;4866950;29;45519;-64
2022/07/17 01:27:45;;;;;;;;;2.00;2.00;;;;;23.97;35.11;102001.06;4866753;29;45390;-64
2022/07/17 01:30:11;;;;;;;;;4.00;4.00;;;;;23.95;35.64;101999.38;4866534;29;45347;-64
2022/07/17 01:32:39;;;;;;;;;4.50;3.00;;;;;23.90;35.55;102007.03;4866814;29;45508;-64
2022/07/17 01:35:06;;;;;;;;;2.75;2.75;;;;;23.88;35.52;102004.41;4866542;29;45330;-64
2022/07/17 01:37:31;;;;;;;;;3.00;3.00;;;;;23.91;35.48;102000.59;4878756;29;45435;-64
2022/07/17 01:39:57;;;;;;;;;3.50;2.50;;;;;23.89;35.59;101992.53;4870056;29;50105;-64
2022/07/17 01:42:24;;;;;;;;;2.50;2.50;;;;;23.87;35.68;102008.09;4893868;28;45276;-64
2022/07/17 01:44:50;;;;;;;;;2.00;2.00;;;;;23.85;35.91;102002.75;4885302;29;45316;-64
2022/07/17 01:47:17;;;;;;;;;3.50;3.50;;;;;23.86;35.48;102006.38;4875013;29;45439;-64
2022/07/17 01:49:47;;;;;;;;;3.00;3.00;;;;;23.83;35.56;101996.53;4870135;29;45400;-64
2022/07/17 01:52:13;;;;;;;;;3.25;2.25;;;;;23.78;35.29;101995.06;4873793;29;45337;-64
2022/07/17 01:54:39;;;;;;;;;3.25;3.25;;;;;23.80;35.65;101998.56;4865692;29;45361;-64
2022/07/17 01:57:04;;;;;;;;;4.25;3.50;;;;;23.74;35.52;101993.53;4866305;29;45271;-64
2022/07/17 01:59:30;;;;;;;;;3.00;3.00;;;;;23.66;35.71;101988.63;4896241;29;45301;-64
2022/07/17 02:01:55;;;;;;;;;3.50;3.00;;;;;23.61;35.82;101988.91;4873909;29;50389;-64
2022/07/17 02:04:20;;;;;;;;;5.75;3.00;;;;;23.62;35.87;101989.78;4865965;29;47106;-64
2022/07/17 02:06:45;;;;;;;;;2.75;2.00;;;;;23.61;35.82;101988.91;4865820;29;45542;-64
2022/07/17 02:09:11;;;;;;;;;3.00;3.00;;;;;23.61;35.59;101988.91;4891325;29;48284;-64
2022/07/17 02:11:36;;;;;;;;;4.50;3.00;;;;;23.62;35.97;101989.78;4882929;29;45404;-64
2022/07/17 02:14:03;;;;;;;;;2.00;2.00;;;;;23.60;35.81;101983.56;4882235;29;45335;-64
2022/07/17 02:16:28;;;;;;;;;3.00;3.00;;;;;23.54;35.93;101975.78;4866159;29;45528;-64
2022/07/17 02:18:54;;;;;;;;;4.00;2.00;;;;;23.49;35.95;101987.03;4867629;29;45383;-64
2022/07/17 02:21:19;;;;;;;;;1.75;1.75;;;;;23.45;36.03;101983.63;4884512;29;45292;-64
2022/07/17 02:23:44;;;;;;;;;2.75;2.00;;;;;23.35;36.28;101981.63;4868316;29;45390;-64
2022/07/17 02:26:10;;;;;;;;;2.00;2.00;;;;;23.31;36.10;101979.09;4865810;29;47166;-64
2022/07/17 02:28:35;;;;;;;;;1.00;1.00;;;;;23.28;36.19;101978.44;4865748;29;46943;-64
2022/07/17 02:31:01;;;;;;;;;2.25;2.25;;;;;23.29;36.40;101983.78;4883726;29;45357;-64
2022/07/17 02:33:26;;;;;;;;;3.50;3.50;;;;;23.26;36.10;101986.72;4885584;29;45717;-64
2022/07/17 02:35:51;;;;;;;;;2.25;2.25;;;;;23.29;36.23;101983.78;4865941;29;45498;-64
2022/07/17 02:38:17;;;;;;;;;1.50;1.50;;;;;23.25;36.28;101974.06;4880821;29;45320;-64
2022/07/17 02:40:42;;;;;;;;;2.50;2.50;;;;;23.19;36.13;101973.59;4878795;29;45718;-64
2022/07/17 02:43:08;;;;;;;;;4.00;3.00;;;;;23.17;36.21;101984.63;4889147;28;45551;-64
2022/07/17 02:45:33;;;;;;;;;3.25;2.50;;;;;23.06;36.22;101976.22;4884747;29;45272;-64
2022/07/17 02:47:59;;;;;;;;;3.25;3.00;;;;;23.05;36.16;101980.78;4869337;29;46121;-63
2022/07/17 02:50:24;;;;;;;;;2.75;2.75;;;;;23.02;36.31;101974.66;4878679;29;45176;-64
2022/07/17 02:52:49;;;;;;;;;4.00;2.25;;;;;22.90;36.34;101966.34;4869182;29;45650;-64
2022/07/17 02:55:16;;;;;;;;;3.00;2.50;;;;;22.91;36.41;101975.38;4865610;29;45324;-64
2022/07/17 02:57:42;;;;;;;;;4.00;3.00;;;;;22.93;36.54;101977.03;4865309;29;45306;-64
2022/07/17 03:00:11;;;;;;;;;3.00;3.00;;;;;22.86;36.47;101975.69;4865766;29;45537;-64
2022/07/17 03:02:37;;;;;;;;;2.25;2.25;;;;;22.85;37.18;101973.06;4865525;29;45638;-64
2022/07/17 03:05:04;;;;;;;;;3.00;2.50;;;;;22.84;36.94;101971.31;4865460;29;45459;-64
2022/07/17 03:07:29;;;;;;;;;3.50;3.50;;;;;22.83;36.87;101969.56;4870416;29;45505;-63
2022/07/17 03:09:55;;;;;;;;;2.00;2.00;;;;;22.79;37.29;101968.00;4896718;28;45292;-64
2022/07/17 03:12:20;;;;;;;;;3.25;3.25;;;;;22.75;36.64;101964.59;4886681;29;45454;-64
2022/07/17 03:14:45;;;;;;;;;2.00;2.00;;;;;22.82;36.79;101975.97;4878976;29;46354;-64
2022/07/17 03:17:11;;;;;;;;;2.25;2.25;;;;;22.82;36.97;101963.25;4866855;29;54095;-66
2022/07/17 03:19:36;;;;;;;;;3.00;3.00;;;;;22.87;36.88;101962.94;4878062;29;45311;-66
2022/07/17 03:22:02;;;;;;;;;3.50;2.50;;;;;22.95;37.32;101976.91;4886068;29;45385;-66
2022/07/17 03:24:27;;;;;;;;;2.00;2.00;;;;;22.95;37.29;101971.47;4879242;29;45425;-66
2022/07/17 03:26:53;;;;;;;;;3.00;3.00;;;;;22.97;36.98;101975.00;4868193;29;45402;-66
2022/07/17 03:29:18;;;;;;;;;2.75;2.75;;;;;22.94;36.77;101970.59;4868437;29;45402;-65
2022/07/17 03:31:45;;;;;;;;;2.50;2.50;;;;;22.94;37.00;101973.34;4881036;29;45485;-66
2022/07/17 03:34:11;;;;;;;;;1.50;1.50;;;;;22.92;36.94;101974.41;4886709;29;45363;-65
2022/07/17 03:36:36;;;;;;;;;2.50;2.50;;;;;22.90;36.77;101973.63;4876914;29;45420;-66
2022/07/17 03:39:02;;;;;;;;;1.25;1.25;;;;;22.89;37.20;101975.47;4878824;29;45226;-66
2022/07/17 03:41:27;;;;;;;;;2.25;2.00;;;;;22.92;36.83;101986.19;4894970;29;45453;-65
2022/07/17 03:43:53;;;;;;;;;3.00;1.50;;;;;22.86;36.95;101981.13;4888144;29;45416;-65
2022/07/17 03:46:18;;;;;;;;;2.00;2.00;;;;;22.83;36.84;101985.91;4885056;29;45285;-66
2022/07/17 03:48:44;;;;;;;;;4.00;3.00;;;;;22.84;36.90;101993.09;4870052;29;45422;-66
2022/07/17 03:51:09;;;;;;;;;1.50;1.50;;;;;22.81;37.34;101999.59;4888350;29;45426;-65
2022/07/17 03:53:35;;;;;;;;;1.00;1.00;;;;;22.76;37.48;101996.31;4897652;29;45374;-65
2022/07/17 03:56:00;;;;;;;;;3.00;2.50;;;;;22.69;37.31;101984.94;4872204;29;46149;-64
2022/07/17 03:58:26;;;;;;;;;3.50;2.00;;;;;22.64;37.27;101994.38;4867813;29;45337;-64
2022/07/17 04:00:51;;;;;;;;;2.25;2.25;;;;;22.61;37.22;101989.13;4868081;29;45207;-64
2022/07/17 04:03:16;;;;;;;;;2.00;2.00;;;;;22.60;37.64;102001.84;4867945;29;45343;-64
2022/07/17 04:05:42;;;;;;;;;2.25;2.00;;;;;22.63;37.50;101990.75;4867494;29;45343;-63
2022/07/17 04:08:07;;;;;;;;;2.25;2.25;;;;;22.60;37.25;101984.66;4880815;29;45434;-64
2022/07/17 04:10:33;;;;;;;;;1.50;1.50;;;;;22.58;37.15;101976.56;4889910;29;45268;-63
2022/07/17 04:12:58;;;;;;;;;3.00;3.00;;;;;22.62;37.69;101982.69;4886465;29;45517;-63
2022/07/17 04:18:07;;;;;;;;;2.00;2.00;;;;;22.62;37.44;101972.72;4895539;29;45451;-64
2022/07/17 04:20:33;;;;;;;;;2.50;2.50;;;;;22.65;37.44;101987.94;4885625;29;45388;-63
2022/07/17 04:22:59;;;;;;;;;2.00;2.00;;;;;22.61;37.48;101978.25;4876818;29;45343;-64
2022/07/17 04:25:24;;;;;;;;;2.25;2.25;;;;;22.62;37.08;102001.75;4867307;29;45648;-64
2022/07/17 04:27:50;;;;;;;;;3.25;3.25;;;;;22.62;37.76;102013.53;4867590;29;45295;-64
2022/07/17 04:30:15;;;;;;;;;3.00;3.00;;;;;22.62;37.44;102013.53;4867609;29;45342;-64
2022/07/17 04:32:40;;;;;;;;;2.75;2.00;;;;;22.63;37.63;102023.41;4886135;29;45419;-63
2022/07/17 04:35:06;;;;;;;;;2.00;2.00;;;;;22.66;37.65;102016.91;4886532;29;45392;-63
2022/07/17 04:37:31;;;;;;;;;2.50;2.50;;;;;22.61;37.04;102010.91;4879558;29;45441;-64
2022/07/17 04:39:57;;;;;;;;;3.00;3.00;;;;;22.56;37.73;102013.91;4871947;29;46070;-63
2022/07/17 04:42:22;;;;;;;;;3.00;2.50;;;;;22.57;37.39;102019.25;4895958;28;45343;-63
2022/07/17 04:44:48;;;;;;;;;2.00;2.00;;;;;22.58;37.83;102020.13;4887136;29;46008;-63
2022/07/17 04:47:13;;;;;;;;;3.25;3.25;;;;;22.59;37.89;102030.03;4881057;29;47389;-63
2022/07/17 04:49:38;;;;;;;;;1.25;1.25;;;;;22.58;37.50;102031.88;4885946;29;45323;-64
2022/07/17 04:52:04;;;;;;;;;4.75;1.50;;;;;22.62;37.79;102043.47;4885632;29;54403;-63
2022/07/17 04:54:29;;;;;;;;;3.75;3.75;;;;;22.58;37.17;102044.59;4885627;29;46306;-64
2022/07/17 04:56:55;;;;;;;;;1.00;1.00;;;;;22.57;38.59;102040.16;4886029;29;45173;-64
2022/07/17 04:59:20;;;;;;;;;2.00;1.75;;;;;22.57;38.24;102032.00;4885873;29;45152;-64
2022/07/17 05:01:45;;;;;;;;;3.00;3.00;;;;;22.63;38.27;102049.78;4876805;29;45461;-63
2022/07/17 05:04:11;;;;;;;;;5.00;2.75;;;;;22.66;37.88;102049.59;4870042;29;45301;-65
2022/07/17 05:06:36;;;;;;;;;3.75;3.75;;;;;22.69;38.23;102041.22;4885338;29;49832;-66
2022/07/17 05:09:01;;;;;;;;;3.00;3.00;;;;;22.73;38.52;102046.34;4893648;29;45208;-66
2022/07/17 05:11:27;;;;;;;;;2.00;2.00;;;;;22.75;38.57;102044.44;4874691;29;45336;-66
2022/07/17 05:13:52;;;;;;;;;2.75;2.75;;;;;22.73;38.20;102040.91;4885717;29;47254;-65
2022/07/17 05:16:17;;;;;;;;;3.25;3.25;;;;;22.77;38.20;102041.63;4895690;29;45331;-66
2022/07/17 05:18:43;;;;;;;;;5.50;5.00;;;;;22.77;37.78;102041.63;4884242;29;45319;-65
2022/07/17 05:21:08;;;;;;;;;6.50;5.00;;;;;22.73;38.36;102046.34;4866673;29;45347;-65
2022/07/17 05:23:33;;;;;;;;;6.00;6.00;;;;;22.75;38.50;102052.59;4892750;29;52540;-65
2022/07/17 05:25:59;;;;;;;;;8.75;8.75;;;;;22.72;38.25;102046.44;4878203;29;45292;-66
2022/07/17 05:28:24;;;;;;;;;11.25;10.75;;;;;22.77;38.47;102052.50;4866831;29;45880;-66
2022/07/17 05:30:49;;;;;;;;;10.25;8.25;;;;;22.76;38.05;102046.16;4865939;29;45634;-66
2022/07/17 05:33:14;;;;;;;;;7.50;7.50;;;;;22.80;38.00;102051.41;4866606;29;45729;-66
2022/07/17 05:35:40;;;;;;;;;7.00;7.00;;;;;22.78;38.19;102054.25;4866555;29;45371;-66
2022/07/17 05:38:06;;;;;;;;;7.00;7.00;;;;;22.77;38.02;102066.13;4881922;29;45270;-66
2022/07/17 05:40:31;;;;;;;;;7.00;6.50;;;;;22.72;38.00;102052.78;4891388;28;45753;-66
2022/07/17 05:42:58;;;;;;;;;6.25;5.25;;;;;22.72;38.17;102054.63;4889796;28;45311;-66
2022/07/17 05:45:23;;;;;;;;;7.75;6.75;;;;;22.63;38.79;102036.16;4885940;28;45229;-66
2022/07/17 05:47:48;;;;;;;;;10.25;7.75;;;;;22.72;38.26;102060.06;4883983;29;45363;-65
2022/07/17 05:50:14;;;;;;;;;9.50;7.50;;;;;22.73;37.84;102056.38;4877708;29;45233;-66
2022/07/17 05:52:39;;;;;;;;;4.75;4.75;;;;;22.73;38.03;102056.38;4866152;29;45355;-65
2022/07/17 05:55:05;;;;;;;;;5.75;4.75;;;;;22.76;38.29;102072.53;4866345;29;45298;-66
2022/07/17 05:57:30;;;;;;;;;3.25;3.25;;;;;22.73;37.78;102070.00;4866340;29;45291;-66
2022/07/17 05:59:56;;;;;;;;;2.25;2.25;;;;;22.66;37.96;102055.88;4866245;29;49331;-66
2022/07/17 06:02:21;;;;;;;;;2.75;2.75;;;;;22.66;37.93;102049.59;4866264;29;46036;-66
2022/07/17 06:04:46;;;;;;;;;2.50;2.50;;;;;22.65;38.31;102062.28;4866275;29;45148;-65
2022/07/17 06:07:12;;;;;;;;;2.00;2.00;;;;;22.61;37.92;102058.03;4866102;29;45277;-66
2022/07/17 06:09:37;;;;;;;;;3.00;3.00;;;;;22.57;38.14;102056.47;4895361;29;45299;-66
2022/07/17 06:12:02;;;;;;;;;3.25;3.25;;;;;22.60;37.57;102063.56;4882960;29;52571;-65
2022/07/17 06:14:28;;;;;;;;;3.75;3.00;;;;;22.56;37.88;102061.03;4877482;29;45355;-66
2022/07/17 06:16:53;;;;;;;;;3.00;3.00;;;;;22.53;37.69;102058.50;4878771;29;45787;-66
2022/07/17 06:19:18;;;;;;;;;3.50;1.00;;;;;22.54;38.00;102056.66;4872299;29;45585;-64
2022/07/17 06:21:44;;;;;;;;;2.00;2.00;;;;;22.54;37.97;102057.53;4871729;29;46587;-64
2022/07/17 06:24:09;;;;;;;;;4.00;2.00;;;;;22.52;38.68;102064.03;4865822;29;51894;-64
2022/07/17 06:26:34;;;;;;;;;4.75;3.00;;;;;22.58;38.28;102067.25;4866140;29;45400;-64
2022/07/17 06:29:00;;;;;;;;;5.00;4.00;;;;;22.57;38.35;102064.66;4899371;29;45569;-64
2022/07/17 06:31:25;;;;;;;;;5.00;5.00;;;;;22.52;38.12;102067.66;4871995;29;45836;-64
2022/07/17 06:33:51;;;;;;;;;4.00;4.00;;;;;22.52;37.70;102064.03;4880314;29;45321;-64
2022/07/17 06:36:16;;;;;;;;;4.50;4.00;;;;;22.48;37.85;102063.34;4868027;29;45364;-64
2022/07/17 06:38:41;;;;;;;;;7.25;5.25;;;;;22.48;37.59;102060.63;4872335;29;45252;-63
2022/07/17 06:41:07;;;;;;;;;4.75;4.75;;;;;22.47;38.15;102061.63;4891194;29;45399;-64
2022/07/17 06:43:32;;;;;;;;;6.50;4.00;;;;;22.50;38.07;102066.88;4884565;28;47076;-63
2022/07/17 06:45:57;;;;;;;;;3.50;3.50;;;;;22.47;37.66;102067.06;4877933;29;45270;-64
2022/07/17 06:48:23;;;;;;;;;4.50;3.75;;;;;22.50;37.65;102064.16;4878171;29;45517;-64
2022/07/17 06:50:49;;;;;;;;;5.25;5.00;;;;;22.48;37.68;102060.63;4865389;29;46101;-64
2022/07/17 06:53:14;;;;;;;;;4.00;3.00;;;;;22.49;38.13;102058.81;4877572;29;45339;-64
2022/07/17 06:55:40;;;;;;;;;4.00;4.00;;;;;22.51;37.55;102057.72;4891040;29;45278;-66
2022/07/17 06:58:06;;;;;;;;;3.50;3.50;;;;;22.50;37.86;102060.53;4872489;29;45437;-66
2022/07/17 07:00:31;;;;;;;;;3.50;3.00;;;;;22.50;37.80;102056.00;4871841;29;45152;-66
2022/07/17 07:02:57;;;;;;;;;3.25;3.25;;;;;22.49;37.82;102054.22;4878109;29;45225;-66
2022/07/17 07:05:22;;;;;;;;;3.00;3.00;;;;;22.53;37.85;102057.63;4890096;29;45437;-64
2022/07/17 07:07:48;;;;;;;;;4.00;3.00;;;;;22.55;37.69;102059.28;4873577;29;45302;-64
2022/07/17 07:10:13;;;;;;;;;3.00;3.00;;;;;22.63;37.69;102066.09;4889741;29;52435;-64
2022/07/17 07:12:39;;;;;;;;;4.75;3.25;;;;;22.63;38.27;102063.38;4882350;29;45362;-64
2022/07/17 07:15:04;;;;;;;;;4.25;4.25;;;;;22.64;38.15;102060.56;4894923;29;45425;-64
2022/07/17 07:17:31;;;;;;;;;3.75;3.75;;;;;22.63;38.25;102058.78;4898537;29;45639;-64
2022/07/17 07:19:57;;;;;;;;;4.00;2.25;;;;;22.69;38.00;102068.44;4873433;29;46202;-63
2022/07/17 07:22:23;;;;;;;;;3.50;3.50;;;;;22.73;38.46;102070.00;4865072;29;45336;-63
2022/07/17 07:24:48;;;;;;;;;2.00;2.00;;;;;22.74;38.28;102055.41;4865586;29;45291;-64
2022/07/17 07:27:13;;;;;;;;;2.00;2.00;;;;;22.82;38.24;102066.69;4864689;29;45690;-64
2022/07/17 07:29:39;;;;;;;;;2.00;2.00;;;;;22.81;38.07;102058.63;4876296;29;45241;-64
2022/07/17 07:32:04;;;;;;;;;2.25;2.25;;;;;22.93;37.53;102075.03;4865919;29;46987;-64
2022/07/17 07:34:29;;;;;;;;;2.25;2.25;;;;;22.93;37.81;102055.97;4876417;29;45589;-64
2022/07/17 07:36:55;;;;;;;;;3.50;3.00;;;;;23.01;37.31;102068.25;4873660;29;45332;-64
2022/07/17 07:39:20;;;;;;;;;4.25;2.00;;;;;22.97;37.73;102050.34;4872903;29;46026;-63
2022/07/17 07:41:46;;;;;;;;;2.75;2.75;;;;;23.09;37.49;102055.91;4889391;29;45177;-68
2022/07/17 07:44:12;;;;;;;;;3.00;3.00;;;;;23.17;37.90;102058.16;4883823;29;45216;-65
2022/07/17 07:46:37;;;;;;;;;4.50;4.50;;;;;23.18;37.31;102053.56;4878703;29;45409;-66
2022/07/17 07:49:03;;;;;;;;;3.00;3.00;;;;;23.22;37.67;102044.22;4865143;29;45414;-66
2022/07/17 07:51:29;;;;;;;;;4.00;3.00;;;;;23.26;37.55;102041.19;4864510;29;45343;-68
2022/07/17 07:53:54;;;;;;;;;2.00;2.00;;;;;23.38;38.23;102047.69;4867277;29;45410;-67
2022/07/17 07:56:20;;;;;;;;;4.00;3.00;;;;;23.48;37.65;102054.25;4867884;29;45557;-67
2022/07/17 07:58:45;;;;;;;;;2.50;2.50;;;;;23.52;37.26;102054.06;4893485;29;47291;-67
2022/07/17 08:01:10;;;;;;;;;1.50;1.00;;;;;23.51;37.56;102044.16;4885195;29;57440;-67
2022/07/17 08:03:35;;;;;;;;;3.50;3.50;;;;;23.63;37.18;102055.09;4875345;29;47754;-65
2022/07/17 08:06:01;;;;;;;;;4.25;3.00;;;;;23.65;37.33;102047.69;4867566;29;45439;-66
2022/07/17 08:08:26;;;;;;;;;4.00;3.00;;;;;23.73;37.18;102063.53;4886101;29;45348;-65
2022/07/17 08:10:52;;;;;;;;;4.50;3.50;;;;;23.79;37.19;102062.22;4885749;28;45374;-66
2022/07/17 08:13:17;;;;;;;;;3.00;3.00;;;;;23.80;36.86;102051.22;4886764;29;45287;-66
2022/07/17 08:15:42;;;;;;;;;3.25;3.00;;;;;23.91;37.23;102063.31;4870306;29;45523;-66
2022/07/17 08:18:08;;;;;;;;;2.00;2.00;;;;;23.93;37.10;102051.31;4867637;29;52463;-66
2022/07/17 08:20:33;;;;;;;;;3.75;2.75;;;;;24.04;37.01;102061.50;4867536;29;45235;-66
2022/07/17 08:22:59;;;;;;;;;3.25;3.00;;;;;23.98;37.11;102032.78;4867692;29;45342;-66
2022/07/17 08:25:24;;;;;;;;;3.75;3.50;;;;;24.18;36.87;102047.75;4867414;29;45441;-66
2022/07/17 08:27:49;;;;;;;;;3.50;3.25;;;;;24.22;37.75;102045.69;4871237;29;46309;-66
2022/07/17 08:30:15;;;;;;;;;2.75;2.75;;;;;24.33;36.72;102050.41;4882552;29;45272;-66
2022/07/17 08:32:41;;;;;;;;;4.00;4.00;;;;;24.39;36.73;102050.84;4879460;29;45297;-65
2022/07/17 08:35:07;;;;;;;;;4.00;3.00;;;;;24.45;36.78;102055.00;4869973;29;45514;-66
2022/07/17 08:37:43;;;;;;;;;3.25;2.75;;;;;24.51;36.40;102051.84;4879318;29;46141;-67
2022/07/17 08:40:14;;;;;;;;;3.00;3.00;;;;;24.58;36.74;102057.78;4872342;29;45372;-66
2022/07/17 08:42:42;;;;;;;;;2.75;2.75;;;;;24.63;35.70;102061.03;4867346;29;45280;-67
2022/07/17 08:45:08;;;;;;;;;5.00;3.00;;;;;24.66;36.03;102049.00;4903723;28;45449;-67
2022/07/17 08:47:34;;;;;;;;;3.00;3.00;;;;;24.76;35.67;102058.31;4873469;29;45332;-69
2022/07/17 08:50:00;;;;;;;;;2.00;2.00;;;;;24.77;35.87;102049.13;4867408;29;45387;-68
2022/07/17 08:52:25;;;;;;;;;4.25;3.00;;;;;24.75;36.04;102046.50;4879034;29;45305;-69
2022/07/17 08:54:50;;;;;;;;;2.00;2.00;;;;;24.82;35.50;102051.53;4867035;29;46256;-69
2022/07/17 08:57:16;;;;;;;;;3.25;2.25;;;;;24.85;35.37;102054.03;4867014;29;46125;-69
2022/07/17 08:59:41;;;;;;;;;2.00;2.00;;;;;24.88;34.59;102048.38;4898033;29;53278;-69
2022/07/17 09:02:06;;;;;;;;;2.75;2.75;;;;;24.90;34.73;102051.84;4871353;29;45514;-69
2022/07/17 09:04:32;;;;;;;;;4.00;3.00;;;;;24.95;35.87;102050.53;4866885;29;52067;-69
2022/07/17 09:07:02;;;;;;;;;3.00;3.00;;;;;25.01;34.94;102057.41;4866941;29;46936;-69
2022/07/17 09:09:28;;;;;;;;;2.25;2.25;;;;;25.09;35.01;102046.81;4894085;29;45544;-70
2022/07/17 09:11:55;;;;;;;;;2.25;2.25;;;;;25.13;34.60;102050.19;4884146;29;45409;-68
2022/07/17 09:14:21;;;;;;;;;2.50;2.50;;;;;25.13;34.47;102051.03;4880666;29;45490;-68
2022/07/17 09:16:53;;;;;;;;;1.75;1.75;;;;;25.16;33.64;102055.41;4876135;29;45311;-69
2022/07/17 09:19:40;;;;;;;;;2.25;2.25;;;;;25.15;33.70;102045.47;4875107;29;45527;-70
2022/07/17 09:22:18;;;;;;;;;2.25;2.25;;;;;25.21;33.80;102049.59;4866744;29;45335;-68
2022/07/17 09:24:49;;;;;;;;;2.00;2.00;;;;;25.25;34.36;102048.41;4881395;29;45339;-63
2022/07/17 09:27:34;;;;;;;;;3.00;2.00;;;;;25.33;34.48;102046.00;4892868;29;47353;-65
2022/07/17 09:30:11;;;;;;;;;3.75;3.75;;;;;25.36;33.97;102042.16;4866968;29;45330;-65
2022/07/17 09:32:41;;;;;;;;;2.25;2.25;;;;;25.44;33.61;102051.53;4866229;29;45326;-65
2022/07/17 09:35:10;;;;;;;;;2.00;2.00;;;;;25.46;33.53;102046.81;4866260;29;45334;-65
2022/07/17 09:37:36;;;;;;;;;3.00;3.00;;;;;25.52;33.91;102054.53;4881286;29;45314;-65
2022/07/17 09:41:13;;;;;;;;;4.25;3.75;;;;;25.53;33.88;102052.69;4883754;29;45841;-65
2022/07/17 09:43:08;;;;;;;;;2.25;2.25;;;;;25.58;34.03;102053.22;4880172;29;45275;-65
2022/07/17 09:45:35;;;;;;;;;2.00;2.00;;;;;25.63;34.62;102055.63;4874628;29;45493;-65
2022/07/17 09:48:02;;;;;;;;;2.00;2.00;;;;;25.62;33.47;102037.47;4888427;29;47078;-65
2022/07/17 09:50:29;;;;;;;;;2.00;2.00;;;;;25.71;32.62;102050.44;4892960;29;46005;-65
2022/07/17 09:52:56;;;;;;;;;3.00;3.00;;;;;25.73;32.18;102050.31;4868668;29;45384;-65
2022/07/17 09:55:28;;;;;;;;;3.75;3.00;;;;;25.72;32.74;102043.97;4867991;29;45452;-65
2022/07/17 09:57:55;;;;;;;;;4.00;3.00;;;;;25.71;33.50;102047.72;4867261;29;45415;-65
2022/07/17 10:00:22;;;;;;;;;3.75;3.75;;;;;25.75;32.79;102045.63;4889041;29;45363;-65
2022/07/17 10:02:48;;;;;;;;;2.25;2.25;;;;;25.73;31.88;102036.63;4880605;29;45398;-65
2022/07/17 10:05:15;;;;;;;;;4.50;3.00;;;;;25.72;32.27;102033.03;4866431;29;45342;-65
2022/07/17 10:07:48;;;;;;;;;2.25;2.00;;;;;25.74;32.78;102039.25;4875283;29;45519;-65
2022/07/17 10:10:16;;;;;;;;;5.25;4.50;;;;;25.80;31.95;102048.88;4889323;28;47218;-65
2022/07/17 10:12:47;;;;;;;;;2.25;2.25;;;;;25.83;31.96;102049.50;4884866;29;45428;-67
2022/07/17 10:15:14;;;;;;;;;3.00;3.00;;;;;25.88;32.29;102050.00;4872536;29;45482;-67
2022/07/17 10:17:39;;;;;;;;;3.00;2.50;;;;;25.93;31.75;102046.03;4866453;29;45307;-67
2022/07/17 10:20:05;;;;;;;;;4.00;2.75;;;;;25.96;32.66;102041.25;4866010;29;45264;-67
2022/07/17 10:22:42;;;;;;;;;2.25;2.25;;;;;26.05;32.11;102043.25;4865939;29;45371;-67
2022/07/17 10:25:13;;;;;;;;;2.50;1.75;;;;;26.13;32.38;102050.88;4866061;29;45297;-67
2022/07/17 10:27:55;;;;;;;;;2.00;2.00;;;;;26.16;31.54;102047.91;4869489;29;47672;-67
2022/07/17 10:30:26;;;;;;;;;2.75;2.75;;;;;26.19;31.53;102050.38;4878396;29;45399;-67
2022/07/17 10:33:00;;;;;;;;;3.00;3.00;;;;;26.22;31.12;102041.94;4866137;29;45567;-67
2022/07/17 10:35:28;;;;;;;;;2.00;2.00;;;;;26.25;30.65;102049.91;4867160;29;45272;-67
2022/07/17 10:37:57;;;;;;;;;3.25;3.25;;;;;26.29;30.79;102041.47;4880045;29;45335;-67
2022/07/17 10:40:27;;;;;;;;;1.25;1.25;;;;;26.35;31.40;102054.69;4886347;29;45264;-67
2022/07/17 10:43:01;;;;;;;;;3.00;3.00;;;;;26.43;30.89;102065.91;4888699;28;45502;-67
2022/07/17 10:45:45;;;;;;;;;2.25;2.25;;;;;26.49;30.54;102061.78;4892065;29;45172;-67
2022/07/17 10:48:16;;;;;;;;;3.75;3.00;;;;;26.55;29.96;102061.31;4865564;29;45337;-67
2022/07/17 10:50:54;;;;;;;;;3.00;3.00;;;;;26.57;30.11;102053.84;4865680;29;46058;-67
2022/07/17 10:53:29;;;;;;;;;3.25;1.50;;;;;26.61;30.02;102050.75;4872248;29;45438;-67
2022/07/17 10:55:56;;;;;;;;;3.00;3.00;;;;;26.69;29.77;102065.72;4889670;29;45344;-67
2022/07/17 10:58:25;;;;;;;;;4.00;2.75;;;;;26.68;29.71;102053.00;4865584;29;46078;-67
2022/07/17 11:00:57;;;;;;;;;2.25;2.25;;;;;26.76;30.00;102054.16;4869862;29;45504;-67
2022/07/17 11:03:22;;;;;;;;;1.00;1.00;;;;;26.78;29.83;102041.19;4894030;29;45390;-67
2022/07/17 11:05:47;;;;;;;;;3.50;3.50;;;;;26.87;29.70;102053.28;4870684;29;45586;-67
2022/07/17 11:08:14;;;;;;;;;4.00;4.00;;;;;26.87;29.59;102034.09;4888114;29;46576;-67
2022/07/17 11:10:39;;;;;;;;;3.00;3.00;;;;;26.96;30.11;102032.47;4884142;29;45383;-67
2022/07/17 11:13:10;;;;;;;;;2.75;2.75;;;;;27.06;29.81;102047.16;4884213;29;45320;-67
2022/07/17 11:15:44;;;;;;;;;3.75;3.00;;;;;27.14;29.69;102041.03;4871037;29;46986;-67
2022/07/17 11:18:17;;;;;;;;;4.00;4.00;;;;;27.19;29.29;102030.56;4874577;29;45416;-67
2022/07/17 11:20:57;;;;;;;;;2.00;2.00;;;;;27.29;29.18;102038.94;4865114;29;45431;-67
2022/07/17 11:23:25;;;;;;;;;1.25;1.25;;;;;27.32;28.39;102034.06;4865544;29;45495;-65
2022/07/17 11:25:53;;;;;;;;;2.25;1.25;;;;;27.38;28.37;102038.16;4868866;29;45493;-65